KCCB/CCB METAR and TAF weather

Enter ICAO airport designator
Station Type Date Time Source
KCCB METAR 2021/10/24 20:35 UTC NOAA

KCCB 242035Z AUTO VRB03KT 10SM OVC025 17/11 A2993 RMK AO2


Station Type Date Time Source
KCCB Decoded METAR 2021/10/24 20:35 UTC NOAA

Station name not available
Oct 24, 2021 - 04:35 PM EDT / 2021.10.24 2035 UTC
Wind: Variable at 3 MPH (3 KT):0
Visibility: 10 mile(s):0
Sky conditions: overcast
Temperature: 62 F (17 C)
Dew Point: 51 F (11 C)
Relative Humidity: 67%
Pressure (altimeter): 29.93 in. Hg (1013 hPa)
ob: KCCB 242035Z AUTO VRB03KT 10SM OVC025 17/11 A2993 RMK AO2
cycle: 20

Station Type Date Time Source
KCCB TAF UTC NOAA

Error!

Example: see airport list